sensor_id;sensor_type;location;lat;lon;timestamp;pressure;altitude;pressure_sealevel;temperature
11321;BMP180;5715;48.234;14.320;2023-07-31T00:00:39;98557.00;;;24.20
11321;BMP180;5715;48.234;14.320;2023-07-31T00:03:26;98558.00;;;24.20
11321;BMP180;5715;48.234;14.320;2023-07-31T00:06:14;98553.00;;;24.30
11321;BMP180;5715;48.234;14.320;2023-07-31T00:09:01;98551.00;;;24.20
11321;BMP180;5715;48.234;14.320;2023-07-31T00:11:49;98550.00;;;24.20
11321;BMP180;5715;48.234;14.320;2023-07-31T00:14:37;98557.00;;;24.40
11321;BMP180;5715;48.234;14.320;2023-07-31T00:17:24;98567.00;;;24.30
11321;BMP180;5715;48.234;14.320;2023-07-31T00:20:12;98562.00;;;24.40
11321;BMP180;5715;48.234;14.320;2023-07-31T00:23:00;98576.00;;;24.50
11321;BMP180;5715;48.234;14.320;2023-07-31T00:25:47;98568.00;;;24.40
11321;BMP180;5715;48.234;14.320;2023-07-31T00:28:35;98568.00;;;24.40
11321;BMP180;5715;48.234;14.320;2023-07-31T00:31:22;98572.00;;;24.30
11321;BMP180;5715;48.234;14.320;2023-07-31T00:34:10;98571.00;;;24.30
11321;BMP180;5715;48.234;14.320;2023-07-31T00:36:57;98571.00;;;24.10
11321;BMP180;5715;48.234;14.320;2023-07-31T00:39:45;98572.00;;;24.10
11321;BMP180;5715;48.234;14.320;2023-07-31T00:42:32;98573.00;;;24.10
11321;BMP180;5715;48.234;14.320;2023-07-31T00:45:21;98574.00;;;24.00
11321;BMP180;5715;48.234;14.320;2023-07-31T00:48:11;98574.00;;;24.00
11321;BMP180;5715;48.234;14.320;2023-07-31T00:50:59;98570.00;;;24.10
11321;BMP180;5715;48.234;14.320;2023-07-31T00:53:48;98576.00;;;24.10
11321;BMP180;5715;48.234;14.320;2023-07-31T00:56:37;98574.00;;;24.00
11321;BMP180;5715;48.234;14.320;2023-07-31T00:59:25;98579.00;;;23.70
11321;BMP180;5715;48.234;14.320;2023-07-31T01:02:13;98570.00;;;23.60
11321;BMP180;5715;48.234;14.320;2023-07-31T01:05:02;98579.00;;;23.70
11321;BMP180;5715;48.234;14.320;2023-07-31T01:11:27;98576.00;;;23.60
11321;BMP180;5715;48.234;14.320;2023-07-31T01:14:15;98580.00;;;23.70
11321;BMP180;5715;48.234;14.320;2023-07-31T01:17:02;98573.00;;;23.70
11321;BMP180;5715;48.234;14.320;2023-07-31T01:19:50;98578.00;;;23.70
11321;BMP180;5715;48.234;14.320;2023-07-31T01:26:28;98581.00;;;23.60
11321;BMP180;5715;48.234;14.320;2023-07-31T01:32:28;98564.00;;;23.40
11321;BMP180;5715;48.234;14.320;2023-07-31T01:35:16;98566.00;;;23.40
11321;BMP180;5715;48.234;14.320;2023-07-31T01:38:05;98563.00;;;23.40
11321;BMP180;5715;48.234;14.320;2023-07-31T01:40:53;98565.00;;;23.40
11321;BMP180;5715;48.234;14.320;2023-07-31T01:43:41;98560.00;;;23.30
11321;BMP180;5715;48.234;14.320;2023-07-31T01:46:28;98567.00;;;23.30
11321;BMP180;5715;48.234;14.320;2023-07-31T01:49:16;98561.00;;;23.30
11321;BMP180;5715;48.234;14.320;2023-07-31T01:52:04;98556.00;;;23.30
11321;BMP180;5715;48.234;14.320;2023-07-31T01:54:52;98558.00;;;23.30
11321;BMP180;5715;48.234;14.320;2023-07-31T01:57:39;98553.00;;;23.30
11321;BMP180;5715;48.234;14.320;2023-07-31T02:00:27;98549.00;;;23.30
11321;BMP180;5715;48.234;14.320;2023-07-31T02:03:14;98551.00;;;23.30
11321;BMP180;5715;48.234;14.320;2023-07-31T02:06:02;98558.00;;;23.40
11321;BMP180;5715;48.234;14.320;2023-07-31T02:08:50;98551.00;;;23.20
11321;BMP180;5715;48.234;14.320;2023-07-31T02:11:38;98555.00;;;23.20
11321;BMP180;5715;48.234;14.320;2023-07-31T02:14:25;98557.00;;;23.00
11321;BMP180;5715;48.234;14.320;2023-07-31T02:17:13;98555.00;;;23.20
11321;BMP180;5715;48.234;14.320;2023-07-31T02:20:00;98550.00;;;23.20
11321;BMP180;5715;48.234;14.320;2023-07-31T02:22:48;98548.00;;;23.20
11321;BMP180;5715;48.234;14.320;2023-07-31T02:25:35;98555.00;;;23.30
11321;BMP180;5715;48.234;14.320;2023-07-31T02:28:23;98560.00;;;23.20
11321;BMP180;5715;48.234;14.320;2023-07-31T02:31:11;98552.00;;;23.30
11321;BMP180;5715;48.234;14.320;2023-07-31T02:33:58;98553.00;;;23.30
11321;BMP180;5715;48.234;14.320;2023-07-31T02:36:46;98541.00;;;23.30
11321;BMP180;5715;48.234;14.320;2023-07-31T02:39:33;98544.00;;;23.30
11321;BMP180;5715;48.234;14.320;2023-07-31T02:42:23;98542.00;;;23.30
11321;BMP180;5715;48.234;14.320;2023-07-31T02:45:11;98538.00;;;23.30
11321;BMP180;5715;48.234;14.320;2023-07-31T02:47:58;98551.00;;;23.40
11321;BMP180;5715;48.234;14.320;2023-07-31T02:50:48;98551.00;;;23.30
11321;BMP180;5715;48.234;14.320;2023-07-31T02:53:36;98550.00;;;23.20
11321;BMP180;5715;48.234;14.320;2023-07-31T02:56:23;98548.00;;;23.10
11321;BMP180;5715;48.234;14.320;2023-07-31T02:59:11;98555.00;;;23.10
11321;BMP180;5715;48.234;14.320;2023-07-31T03:01:58;98554.00;;;23.10
11321;BMP180;5715;48.234;14.320;2023-07-31T03:04:46;98549.00;;;23.20
11321;BMP180;5715;48.234;14.320;2023-07-31T03:07:33;98553.00;;;23.20
11321;BMP180;5715;48.234;14.320;2023-07-31T03:10:21;98550.00;;;23.30
11321;BMP180;5715;48.234;14.320;2023-07-31T03:13:08;98546.00;;;23.20
11321;BMP180;5715;48.234;14.320;2023-07-31T03:15:56;98545.00;;;23.20
11321;BMP180;5715;48.234;14.320;2023-07-31T03:18:43;98550.00;;;23.10
11321;BMP180;5715;48.234;14.320;2023-07-31T03:21:31;98554.00;;;23.00
11321;BMP180;5715;48.234;14.320;2023-07-31T03:24:18;98547.00;;;23.00
11321;BMP180;5715;48.234;14.320;2023-07-31T03:27:06;98558.00;;;22.90
11321;BMP180;5715;48.234;14.320;2023-07-31T03:29:54;98560.00;;;22.80
11321;BMP180;5715;48.234;14.320;2023-07-31T03:32:43;98560.00;;;22.80
11321;BMP180;5715;48.234;14.320;2023-07-31T03:35:31;98562.00;;;22.70
11321;BMP180;5715;48.234;14.320;2023-07-31T03:38:19;98571.00;;;22.60
11321;BMP180;5715;48.234;14.320;2023-07-31T03:41:07;98571.00;;;22.60
11321;BMP180;5715;48.234;14.320;2023-07-31T03:43:55;98564.00;;;22.50
11321;BMP180;5715;48.234;14.320;2023-07-31T03:46:45;98559.00;;;22.50
11321;BMP180;5715;48.234;14.320;2023-07-31T03:49:33;98563.00;;;22.40
11321;BMP180;5715;48.234;14.320;2023-07-31T03:52:20;98572.00;;;22.40
11321;BMP180;5715;48.234;14.320;2023-07-31T03:55:08;98564.00;;;22.40
11321;BMP180;5715;48.234;14.320;2023-07-31T03:57:55;98563.00;;;22.40
11321;BMP180;5715;48.234;14.320;2023-07-31T04:00:43;98568.00;;;22.40
11321;BMP180;5715;48.234;14.320;2023-07-31T04:03:31;98565.00;;;22.40
11321;BMP180;5715;48.234;14.320;2023-07-31T04:06:18;98559.00;;;22.50
11321;BMP180;5715;48.234;14.320;2023-07-31T04:09:06;98556.00;;;22.50
11321;BMP180;5715;48.234;14.320;2023-07-31T04:11:53;98569.00;;;22.60
11321;BMP180;5715;48.234;14.320;2023-07-31T04:14:41;98564.00;;;22.60
11321;BMP180;5715;48.234;14.320;2023-07-31T04:17:29;98559.00;;;22.60
11321;BMP180;5715;48.234;14.320;2023-07-31T04:20:16;98554.00;;;22.60
11321;BMP180;5715;48.234;14.320;2023-07-31T04:23:04;98556.00;;;22.70
11321;BMP180;5715;48.234;14.320;2023-07-31T04:25:51;98557.00;;;22.70
11321;BMP180;5715;48.234;14.320;2023-07-31T04:28:38;98558.00;;;22.80
11321;BMP180;5715;48.234;14.320;2023-07-31T04:31:26;98565.00;;;22.70
11321;BMP180;5715;48.234;14.320;2023-07-31T04:34:14;98570.00;;;22.80
11321;BMP180;5715;48.234;14.320;2023-07-31T04:37:02;98560.00;;;22.80
11321;BMP180;5715;48.234;14.320;2023-07-31T04:39:49;98565.00;;;22.80
11321;BMP180;5715;48.234;14.320;2023-07-31T04:42:37;98564.00;;;22.70
11321;BMP180;5715;48.234;14.320;2023-07-31T04:45:24;98562.00;;;22.60
11321;BMP180;5715;48.234;14.320;2023-07-31T04:48:12;98567.00;;;22.70
11321;BMP180;5715;48.234;14.320;2023-07-31T04:50:59;98565.00;;;22.60
11321;BMP180;5715;48.234;14.320;2023-07-31T04:53:47;98563.00;;;22.60
11321;BMP180;5715;48.234;14.320;2023-07-31T04:56:34;98562.00;;;22.60
11321;BMP180;5715;48.234;14.320;2023-07-31T04:59:22;98561.00;;;22.70
11321;BMP180;5715;48.234;14.320;2023-07-31T05:02:12;98570.00;;;22.70
11321;BMP180;5715;48.234;14.320;2023-07-31T05:05:00;98562.00;;;22.70
11321;BMP180;5715;48.234;14.320;2023-07-31T05:07:48;98573.00;;;22.80
11321;BMP180;5715;48.234;14.320;2023-07-31T05:10:35;98571.00;;;22.70
11321;BMP180;5715;48.234;14.320;2023-07-31T05:13:23;98574.00;;;22.60
11321;BMP180;5715;48.234;14.320;2023-07-31T05:16:10;98568.00;;;22.80
11321;BMP180;5715;48.234;14.320;2023-07-31T05:18:58;98572.00;;;22.90
11321;BMP180;5715;48.234;14.320;2023-07-31T05:21:45;98568.00;;;24.50
11321;BMP180;5715;48.234;14.320;2023-07-31T05:24:36;98573.00;;;25.10
11321;BMP180;5715;48.234;14.320;2023-07-31T05:27:23;98566.00;;;25.40
11321;BMP180;5715;48.234;14.320;2023-07-31T05:30:11;98563.00;;;25.90
11321;BMP180;5715;48.234;14.320;2023-07-31T05:32:59;98575.00;;;27.60
11321;BMP180;5715;48.234;14.320;2023-07-31T05:35:46;98572.00;;;29.10
11321;BMP180;5715;48.234;14.320;2023-07-31T05:38:34;98578.00;;;30.30
11321;BMP180;5715;48.234;14.320;2023-07-31T05:41:21;98564.00;;;31.40
11321;BMP180;5715;48.234;14.320;2023-07-31T05:44:09;98563.00;;;32.20
11321;BMP180;5715;48.234;14.320;2023-07-31T05:46:56;98568.00;;;33.10
11321;BMP180;5715;48.234;14.320;2023-07-31T05:49:44;98566.00;;;32.70
11321;BMP180;5715;48.234;14.320;2023-07-31T05:52:32;98569.00;;;33.40
11321;BMP180;5715;48.234;14.320;2023-07-31T05:55:19;98565.00;;;33.70
11321;BMP180;5715;48.234;14.320;2023-07-31T05:58:08;98567.00;;;34.10
11321;BMP180;5715;48.234;14.320;2023-07-31T06:00:55;98562.00;;;34.10
11321;BMP180;5715;48.234;14.320;2023-07-31T06:03:43;98566.00;;;33.80
11321;BMP180;5715;48.234;14.320;2023-07-31T06:06:31;98570.00;;;33.10
11321;BMP180;5715;48.234;14.320;2023-07-31T06:09:19;98571.00;;;31.10
11321;BMP180;5715;48.234;14.320;2023-07-31T06:12:08;98566.00;;;29.80
11321;BMP180;5715;48.234;14.320;2023-07-31T06:14:56;98561.00;;;28.50
11321;BMP180;5715;48.234;14.320;2023-07-31T06:17:43;98566.00;;;27.70
11321;BMP180;5715;48.234;14.320;2023-07-31T06:20:31;98571.00;;;27.60
11321;BMP180;5715;48.234;14.320;2023-07-31T06:23:19;98563.00;;;27.20
11321;BMP180;5715;48.234;14.320;2023-07-31T06:26:08;98564.00;;;27.20
11321;BMP180;5715;48.234;14.320;2023-07-31T06:28:56;98564.00;;;26.90
11321;BMP180;5715;48.234;14.320;2023-07-31T06:31:43;98566.00;;;27.00
11321;BMP180;5715;48.234;14.320;2023-07-31T06:34:31;98559.00;;;26.80
11321;BMP180;5715;48.234;14.320;2023-07-31T06:37:19;98565.00;;;26.60
11321;BMP180;5715;48.234;14.320;2023-07-31T06:40:07;98558.00;;;26.70
11321;BMP180;5715;48.234;14.320;2023-07-31T06:42:56;98566.00;;;26.90
11321;BMP180;5715;48.234;14.320;2023-07-31T06:45:44;98554.00;;;27.00
11321;BMP180;5715;48.234;14.320;2023-07-31T06:48:33;98562.00;;;27.40
11321;BMP180;5715;48.234;14.320;2023-07-31T06:51:20;98555.00;;;27.60
11321;BMP180;5715;48.234;14.320;2023-07-31T06:54:08;98563.00;;;27.30
11321;BMP180;5715;48.234;14.320;2023-07-31T06:56:56;98564.00;;;27.60
11321;BMP180;5715;48.234;14.320;2023-07-31T06:59:43;98553.00;;;27.20
11321;BMP180;5715;48.234;14.320;2023-07-31T07:02:31;98549.00;;;27.50
11321;BMP180;5715;48.234;14.320;2023-07-31T07:05:19;98551.00;;;27.60
11321;BMP180;5715;48.234;14.320;2023-07-31T07:08:06;98543.00;;;27.70
11321;BMP180;5715;48.234;14.320;2023-07-31T07:10:54;98548.00;;;27.90
11321;BMP180;5715;48.234;14.320;2023-07-31T07:13:41;98542.00;;;28.20
11321;BMP180;5715;48.234;14.320;2023-07-31T07:16:29;98537.00;;;28.00
11321;BMP180;5715;48.234;14.320;2023-07-31T07:19:16;98538.00;;;28.30
11321;BMP180;5715;48.234;14.320;2023-07-31T07:22:04;98539.00;;;28.70
11321;BMP180;5715;48.234;14.320;2023-07-31T07:24:53;98537.00;;;28.50
11321;BMP180;5715;48.234;14.320;2023-07-31T07:27:41;98537.00;;;29.10
11321;BMP180;5715;48.234;14.320;2023-07-31T07:30:28;98531.00;;;29.00
11321;BMP180;5715;48.234;14.320;2023-07-31T07:33:16;98528.00;;;28.50
11321;BMP180;5715;48.234;14.320;2023-07-31T07:36:03;98523.00;;;28.90
11321;BMP180;5715;48.234;14.320;2023-07-31T07:38:53;98525.00;;;28.50
11321;BMP180;5715;48.234;14.320;2023-07-31T07:41:40;98529.00;;;29.10
11321;BMP180;5715;48.234;14.320;2023-07-31T07:44:28;98524.00;;;28.80
11321;BMP180;5715;48.234;14.320;2023-07-31T07:47:16;98523.00;;;28.80
11321;BMP180;5715;48.234;14.320;2023-07-31T07:50:04;98527.00;;;28.80
11321;BMP180;5715;48.234;14.320;2023-07-31T07:52:55;98527.00;;;28.50
11321;BMP180;5715;48.234;14.320;2023-07-31T07:55:43;98526.00;;;28.60
11321;BMP180;5715;48.234;14.320;2023-07-31T07:58:30;98518.00;;;28.20
11321;BMP180;5715;48.234;14.320;2023-07-31T08:01:18;98514.00;;;28.50
11321;BMP180;5715;48.234;14.320;2023-07-31T08:04:06;98522.00;;;28.00
11321;BMP180;5715;48.234;14.320;2023-07-31T08:06:53;98516.00;;;28.80
11321;BMP180;5715;48.234;14.320;2023-07-31T08:09:41;98511.00;;;29.00
11321;BMP180;5715;48.234;14.320;2023-07-31T08:12:29;98510.00;;;29.30
11321;BMP180;5715;48.234;14.320;2023-07-31T08:15:16;98511.00;;;29.50
11321;BMP180;5715;48.234;14.320;2023-07-31T08:18:04;98519.00;;;29.00
11321;BMP180;5715;48.234;14.320;2023-07-31T08:20:52;98512.00;;;29.20
11321;BMP180;5715;48.234;14.320;2023-07-31T08:23:39;98509.00;;;29.80
11321;BMP180;5715;48.234;14.320;2023-07-31T08:26:27;98508.00;;;29.20
11321;BMP180;5715;48.234;14.320;2023-07-31T08:29:15;98509.00;;;29.60
11321;BMP180;5715;48.234;14.320;2023-07-31T08:32:02;98506.00;;;29.00
11321;BMP180;5715;48.234;14.320;2023-07-31T08:34:50;98512.00;;;28.70
11321;BMP180;5715;48.234;14.320;2023-07-31T08:37:38;98510.00;;;28.80
11321;BMP180;5715;48.234;14.320;2023-07-31T08:40:26;98504.00;;;29.30
11321;BMP180;5715;48.234;14.320;2023-07-31T08:43:15;98504.00;;;29.40
11321;BMP180;5715;48.234;14.320;2023-07-31T08:46:03;98494.00;;;29.20
11321;BMP180;5715;48.234;14.320;2023-07-31T08:48:52;98494.00;;;29.50
11321;BMP180;5715;48.234;14.320;2023-07-31T08:51:42;98496.00;;;29.60
11321;BMP180;5715;48.234;14.320;2023-07-31T08:54:32;98492.00;;;29.60
11321;BMP180;5715;48.234;14.320;2023-07-31T08:57:23;98498.00;;;29.50
11321;BMP180;5715;48.234;14.320;2023-07-31T09:00:14;98485.00;;;29.30
11321;BMP180;5715;48.234;14.320;2023-07-31T09:03:17;98485.00;;;29.90
11321;BMP180;5715;48.234;14.320;2023-07-31T09:06:06;98483.00;;;30.30
11321;BMP180;5715;48.234;14.320;2023-07-31T09:08:54;98480.00;;;31.00
11321;BMP180;5715;48.234;14.320;2023-07-31T09:11:42;98477.00;;;31.10
11321;BMP180;5715;48.234;14.320;2023-07-31T09:14:29;98476.00;;;31.40
11321;BMP180;5715;48.234;14.320;2023-07-31T09:17:36;98475.00;;;30.80
11321;BMP180;5715;48.234;14.320;2023-07-31T09:20:24;98479.00;;;31.10
11321;BMP180;5715;48.234;14.320;2023-07-31T09:23:14;98476.00;;;30.80
11321;BMP180;5715;48.234;14.320;2023-07-31T09:26:02;98470.00;;;30.70
11321;BMP180;5715;48.234;14.320;2023-07-31T09:28:50;98471.00;;;30.10
11321;BMP180;5715;48.234;14.320;2023-07-31T09:31:43;98465.00;;;30.60
11321;BMP180;5715;48.234;14.320;2023-07-31T09:34:38;98464.00;;;30.70
11321;BMP180;5715;48.234;14.320;2023-07-31T09:37:29;98468.00;;;30.90
11321;BMP180;5715;48.234;14.320;2023-07-31T09:40:45;98459.00;;;31.50
11321;BMP180;5715;48.234;14.320;2023-07-31T09:43:33;98467.00;;;31.70
11321;BMP180;5715;48.234;14.320;2023-07-31T09:46:21;98462.00;;;32.00
11321;BMP180;5715;48.234;14.320;2023-07-31T09:49:11;98454.00;;;31.80
11321;BMP180;5715;48.234;14.320;2023-07-31T09:51:58;98450.00;;;32.20
11321;BMP180;5715;48.234;14.320;2023-07-31T09:54:46;98446.00;;;32.40
11321;BMP180;5715;48.234;14.320;2023-07-31T09:57:39;98447.00;;;33.00
11321;BMP180;5715;48.234;14.320;2023-07-31T10:00:29;98446.00;;;33.40
11321;BMP180;5715;48.234;14.320;2023-07-31T10:03:17;98440.00;;;33.70
11321;BMP180;5715;48.234;14.320;2023-07-31T10:06:08;98445.00;;;33.60
11321;BMP180;5715;48.234;14.320;2023-07-31T10:08:57;98433.00;;;32.10
11321;BMP180;5715;48.234;14.320;2023-07-31T10:12:00;98434.00;;;31.90
11321;BMP180;5715;48.234;14.320;2023-07-31T10:14:52;98424.00;;;32.40
11321;BMP180;5715;48.234;14.320;2023-07-31T10:17:42;98422.00;;;32.30
11321;BMP180;5715;48.234;14.320;2023-07-31T10:20:30;98423.00;;;32.60
11321;BMP180;5715;48.234;14.320;2023-07-31T10:23:18;98423.00;;;32.90
11321;BMP180;5715;48.234;14.320;2023-07-31T10:26:08;98417.00;;;31.40
11321;BMP180;5715;48.234;14.320;2023-07-31T10:28:57;98414.00;;;32.30
11321;BMP180;5715;48.234;14.320;2023-07-31T10:31:47;98407.00;;;32.10
11321;BMP180;5715;48.234;14.320;2023-07-31T10:34:36;98406.00;;;32.70
11321;BMP180;5715;48.234;14.320;2023-07-31T10:37:29;98395.00;;;33.60
11321;BMP180;5715;48.234;14.320;2023-07-31T10:40:27;98389.00;;;33.10
11321;BMP180;5715;48.234;14.320;2023-07-31T10:43:25;98400.00;;;33.50
11321;BMP180;5715;48.234;14.320;2023-07-31T10:46:15;98388.00;;;32.90
11321;BMP180;5715;48.234;14.320;2023-07-31T10:49:03;98387.00;;;32.60
11321;BMP180;5715;48.234;14.320;2023-07-31T10:51:50;98386.00;;;33.10
11321;BMP180;5715;48.234;14.320;2023-07-31T10:54:39;98388.00;;;33.10
11321;BMP180;5715;48.234;14.320;2023-07-31T10:57:35;98378.00;;;33.60
11321;BMP180;5715;48.234;14.320;2023-07-31T11:00:28;98377.00;;;32.70
11321;BMP180;5715;48.234;14.320;2023-07-31T11:03:18;98380.00;;;31.80
11321;BMP180;5715;48.234;14.320;2023-07-31T11:06:10;98370.00;;;32.70
11321;BMP180;5715;48.234;14.320;2023-07-31T11:09:00;98365.00;;;33.60
11321;BMP180;5715;48.234;14.320;2023-07-31T11:11:48;98365.00;;;33.60
11321;BMP180;5715;48.234;14.320;2023-07-31T11:14:39;98360.00;;;33.90
11321;BMP180;5715;48.234;14.320;2023-07-31T11:17:27;98358.00;;;33.40
11321;BMP180;5715;48.234;14.320;2023-07-31T11:20:15;98346.00;;;32.90
11321;BMP180;5715;48.234;14.320;2023-07-31T11:23:07;98351.00;;;33.20
11321;BMP180;5715;48.234;14.320;2023-07-31T11:26:00;98352.00;;;32.60
11321;BMP180;5715;48.234;14.320;2023-07-31T11:28:50;98346.00;;;32.70
11321;BMP180;5715;48.234;14.320;2023-07-31T11:31:48;98334.00;;;33.00
11321;BMP180;5715;48.234;14.320;2023-07-31T11:34:55;98343.00;;;33.20
11321;BMP180;5715;48.234;14.320;2023-07-31T11:37:44;98331.00;;;33.30
11321;BMP180;5715;48.234;14.320;2023-07-31T11:40:42;98329.00;;;33.80
11321;BMP180;5715;48.234;14.320;2023-07-31T11:43:32;98325.00;;;33.90
11321;BMP180;5715;48.234;14.320;2023-07-31T11:46:21;98329.00;;;34.20
11321;BMP180;5715;48.234;14.320;2023-07-31T11:49:09;98325.00;;;34.00
11321;BMP180;5715;48.234;14.320;2023-07-31T11:51:58;98320.00;;;33.90
11321;BMP180;5715;48.234;14.320;2023-07-31T11:54:47;98313.00;;;32.20
11321;BMP180;5715;48.234;14.320;2023-07-31T11:57:37;98310.00;;;33.70
11321;BMP180;5715;48.234;14.320;2023-07-31T12:00:27;98305.00;;;33.50
11321;BMP180;5715;48.234;14.320;2023-07-31T12:03:16;98305.00;;;33.10
11321;BMP180;5715;48.234;14.320;2023-07-31T12:06:03;98322.00;;;33.20
11321;BMP180;5715;48.234;14.320;2023-07-31T12:08:52;98306.00;;;33.10
11321;BMP180;5715;48.234;14.320;2023-07-31T12:11:47;98307.00;;;33.50
11321;BMP180;5715;48.234;14.320;2023-07-31T12:14:41;98304.00;;;33.00
11321;BMP180;5715;48.234;14.320;2023-07-31T12:17:29;98299.00;;;32.90
11321;BMP180;5715;48.234;14.320;2023-07-31T12:20:17;98290.00;;;32.20
11321;BMP180;5715;48.234;14.320;2023-07-31T12:23:04;98289.00;;;33.00
11321;BMP180;5715;48.234;14.320;2023-07-31T12:26:14;98279.00;;;33.00
11321;BMP180;5715;48.234;14.320;2023-07-31T12:29:02;98271.00;;;32.80
11321;BMP180;5715;48.234;14.320;2023-07-31T12:31:54;98265.00;;;33.20
11321;BMP180;5715;48.234;14.320;2023-07-31T12:34:44;98257.00;;;33.70
11321;BMP180;5715;48.234;14.320;2023-07-31T12:37:33;98255.00;;;32.80
11321;BMP180;5715;48.234;14.320;2023-07-31T12:40:20;98263.00;;;33.70
11321;BMP180;5715;48.234;14.320;2023-07-31T12:43:16;98256.00;;;32.80
11321;BMP180;5715;48.234;14.320;2023-07-31T12:46:04;98244.00;;;33.60
11321;BMP180;5715;48.234;14.320;2023-07-31T12:48:52;98244.00;;;33.60
11321;BMP180;5715;48.234;14.320;2023-07-31T12:51:40;98236.00;;;33.30
11321;BMP180;5715;48.234;14.320;2023-07-31T12:54:27;98233.00;;;33.20
11321;BMP180;5715;48.234;14.320;2023-07-31T12:57:15;98233.00;;;32.50
11321;BMP180;5715;48.234;14.320;2023-07-31T13:00:03;98227.00;;;33.00
11321;BMP180;5715;48.234;14.320;2023-07-31T13:02:51;98221.00;;;33.20
11321;BMP180;5715;48.234;14.320;2023-07-31T13:05:40;98221.00;;;33.50
11321;BMP180;5715;48.234;14.320;2023-07-31T13:08:32;98211.00;;;33.70
11321;BMP180;5715;48.234;14.320;2023-07-31T13:11:20;98207.00;;;33.50
11321;BMP180;5715;48.234;14.320;2023-07-31T13:14:08;98208.00;;;34.20
11321;BMP180;5715;48.234;14.320;2023-07-31T13:16:55;98206.00;;;33.90
11321;BMP180;5715;48.234;14.320;2023-07-31T13:19:43;98205.00;;;34.00
11321;BMP180;5715;48.234;14.320;2023-07-31T13:22:31;98200.00;;;33.60
11321;BMP180;5715;48.234;14.320;2023-07-31T13:25:18;98192.00;;;33.90
11321;BMP180;5715;48.234;14.320;2023-07-31T13:28:06;98186.00;;;33.90
11321;BMP180;5715;48.234;14.320;2023-07-31T13:30:53;98174.00;;;33.90
11321;BMP180;5715;48.234;14.320;2023-07-31T13:33:41;98175.00;;;34.60
11321;BMP180;5715;48.234;14.320;2023-07-31T13:36:30;98173.00;;;34.10
11321;BMP180;5715;48.234;14.320;2023-07-31T13:39:18;98179.00;;;33.30
11321;BMP180;5715;48.234;14.320;2023-07-31T13:42:07;98180.00;;;34.40
11321;BMP180;5715;48.234;14.320;2023-07-31T13:44:56;98173.00;;;34.50
11321;BMP180;5715;48.234;14.320;2023-07-31T13:47:44;98176.00;;;34.90
11321;BMP180;5715;48.234;14.320;2023-07-31T13:50:31;98167.00;;;34.50
11321;BMP180;5715;48.234;14.320;2023-07-31T13:53:19;98154.00;;;34.90
11321;BMP180;5715;48.234;14.320;2023-07-31T13:56:06;98157.00;;;34.20
11321;BMP180;5715;48.234;14.320;2023-07-31T13:58:54;98151.00;;;34.10
11321;BMP180;5715;48.234;14.320;2023-07-31T14:01:42;98150.00;;;34.80
11321;BMP180;5715;48.234;14.320;2023-07-31T14:04:30;98147.00;;;35.60
11321;BMP180;5715;48.234;14.320;2023-07-31T14:07:18;98146.00;;;35.10
11321;BMP180;5715;48.234;14.320;2023-07-31T14:10:06;98140.00;;;35.70
11321;BMP180;5715;48.234;14.320;2023-07-31T14:12:54;98142.00;;;35.30
11321;BMP180;5715;48.234;14.320;2023-07-31T14:15:42;98136.00;;;35.60
11321;BMP180;5715;48.234;14.320;2023-07-31T14:18:30;98140.00;;;35.30
11321;BMP180;5715;48.234;14.320;2023-07-31T14:21:18;98141.00;;;35.20
11321;BMP180;5715;48.234;14.320;2023-07-31T14:24:06;98136.00;;;35.20
11321;BMP180;5715;48.234;14.320;2023-07-31T14:26:54;98136.00;;;34.80
11321;BMP180;5715;48.234;14.320;2023-07-31T14:29:41;98131.00;;;34.90
11321;BMP180;5715;48.234;14.320;2023-07-31T14:32:29;98128.00;;;35.50
11321;BMP180;5715;48.234;14.320;2023-07-31T14:35:16;98121.00;;;35.40
11321;BMP180;5715;48.234;14.320;2023-07-31T14:38:04;98123.00;;;35.80
11321;BMP180;5715;48.234;14.320;2023-07-31T14:40:52;98113.00;;;35.10
11321;BMP180;5715;48.234;14.320;2023-07-31T14:43:39;98115.00;;;35.00
11321;BMP180;5715;48.234;14.320;2023-07-31T14:46:27;98109.00;;;34.90
11321;BMP180;5715;48.234;14.320;2023-07-31T14:49:14;98116.00;;;35.40
11321;BMP180;5715;48.234;14.320;2023-07-31T14:52:02;98111.00;;;34.90
11321;BMP180;5715;48.234;14.320;2023-07-31T14:54:50;98105.00;;;35.10
11321;BMP180;5715;48.234;14.320;2023-07-31T14:57:37;98100.00;;;35.50
11321;BMP180;5715;48.234;14.320;2023-07-31T15:00:25;98104.00;;;35.80
11321;BMP180;5715;48.234;14.320;2023-07-31T15:03:13;98094.00;;;35.60
11321;BMP180;5715;48.234;14.320;2023-07-31T15:06:01;98086.00;;;35.60
11321;BMP180;5715;48.234;14.320;2023-07-31T15:08:49;98096.00;;;35.30
11321;BMP180;5715;48.234;14.320;2023-07-31T15:11:36;98087.00;;;35.80
11321;BMP180;5715;48.234;14.320;2023-07-31T15:14:25;98074.00;;;35.50
11321;BMP180;5715;48.234;14.320;2023-07-31T15:17:14;98069.00;;;36.00
11321;BMP180;5715;48.234;14.320;2023-07-31T15:20:02;98072.00;;;35.60
11321;BMP180;5715;48.234;14.320;2023-07-31T15:22:51;98067.00;;;35.20
11321;BMP180;5715;48.234;14.320;2023-07-31T15:25:38;98062.00;;;35.00
11321;BMP180;5715;48.234;14.320;2023-07-31T15:28:26;98066.00;;;34.90
11321;BMP180;5715;48.234;14.320;2023-07-31T15:31:13;98063.00;;;35.00
11321;BMP180;5715;48.234;14.320;2023-07-31T15:34:01;98056.00;;;34.30
11321;BMP180;5715;48.234;14.320;2023-07-31T15:36:49;98053.00;;;35.00
11321;BMP180;5715;48.234;14.320;2023-07-31T15:39:36;98045.00;;;35.10
11321;BMP180;5715;48.234;14.320;2023-07-31T15:42:24;98050.00;;;34.60
11321;BMP180;5715;48.234;14.320;2023-07-31T15:45:11;98047.00;;;34.10
11321;BMP180;5715;48.234;14.320;2023-07-31T15:47:59;98048.00;;;34.00
11321;BMP180;5715;48.234;14.320;2023-07-31T15:50:47;98045.00;;;34.40
11321;BMP180;5715;48.234;14.320;2023-07-31T15:53:34;98038.00;;;33.80
11321;BMP180;5715;48.234;14.320;2023-07-31T15:56:22;98037.00;;;33.80
11321;BMP180;5715;48.234;14.320;2023-07-31T15:59:09;98031.00;;;33.30
11321;BMP180;5715;48.234;14.320;2023-07-31T16:01:58;98032.00;;;33.10
11321;BMP180;5715;48.234;14.320;2023-07-31T16:04:45;98030.00;;;32.80
11321;BMP180;5715;48.234;14.320;2023-07-31T16:07:33;98025.00;;;32.90
11321;BMP180;5715;48.234;14.320;2023-07-31T16:10:20;98012.00;;;33.10
11321;BMP180;5715;48.234;14.320;2023-07-31T16:13:08;98008.00;;;33.20
11321;BMP180;5715;48.234;14.320;2023-07-31T16:15:55;98012.00;;;32.90
11321;BMP180;5715;48.234;14.320;2023-07-31T16:18:43;98013.00;;;32.90
11321;BMP180;5715;48.234;14.320;2023-07-31T16:21:31;98013.00;;;33.00